PWSweather.com
Personal Weather Stations
Station Observations
KOHAVON11
Long Road Station, Avon, OH 44011

Long Road StationAvon, OH 44011

Lat: 41.437, Lon: -82.0477

Elevation: 686

Station Type: Davis Vantage Pro2

http://www.avon-weather.com

High Low Average
Temperature 12.0°F-11.1°C 0.4°F-17.6°C 6.9°F-13.9°C
Dew Point 5.1°F-14.9°C -5.3°F-20.7°C 0.6°F-17.4°C
Winds 12.0 mph 19.3 kmh 1.0 mph 1.6 kmh 4.0 mph WSW6.4 kmh WSW
Wind Gusts 19.0 mph30.6 kmh 2.0 mph3.2 kmh 9.0 mph14.5 kmh
Humidity 79% 67% 75%
Pressure 30.64 in1037.6 mb 30.53 in1033.9 mb -
Precipitation 0.00 in0.0 mm - -
Hour Temp Dew Point Humidity Winds Wind Gusts Pressure Precip Precip Rate Daily Precip Total
12:04 AM 4.8°F-15.1°C -1.9°F-18.8°C 73% 2.0 mph SW3.2 kmh SW 3.0 mph4.8 kmh 30.53 in1033.9 mb 0.00 in0.0 mm 0.00 in0.0 mm 0.00 in0.0 mm
12:09 AM 4.7°F-15.2°C -1.7°F-18.7°C 74% 2.0 mph SW3.2 kmh SW 3.0 mph4.8 kmh 30.53 in1033.9 mb 0.00 in0.0 mm 0.00 in0.0 mm 0.00 in0.0 mm
12:14 AM 4.5°F-15.3°C -1.9°F-18.8°C 74% 1.0 mph SW1.6 kmh SW 3.0 mph4.8 kmh 30.53 in1033.9 mb 0.00 in0.0 mm 0.00 in0.0 mm 0.00 in0.0 mm
12:19 AM 4.4°F-15.3°C -2.0°F-18.9°C 74% 2.0 mph SW3.2 kmh SW 3.0 mph4.8 kmh 30.53 in1033.9 mb 0.00 in0.0 mm 0.00 in0.0 mm 0.00 in0.0 mm
12:24 AM 4.3°F-15.4°C -2.1°F-18.9°C 74% 1.0 mph SW1.6 kmh SW 3.0 mph4.8 kmh 30.53 in1033.9 mb 0.00 in0.0 mm 0.00 in0.0 mm 0.00 in0.0 mm
12:29 AM 4.1°F-15.5°C -2.3°F-19.1°C 74% 2.0 mph SW3.2 kmh SW 4.0 mph6.4 kmh 30.53 in1033.9 mb 0.00 in0.0 mm 0.00 in0.0 mm 0.00 in0.0 mm
12:34 AM 4.0°F-15.6°C -2.4°F-19.1°C 74% 4.0 mph SW6.4 kmh SW 5.0 mph8.0 kmh 30.53 in1033.9 mb 0.00 in0.0 mm 0.00 in0.0 mm 0.00 in0.0 mm
12:39 AM 4.0°F-15.6°C -2.4°F-19.1°C 74% 3.0 mph SW4.8 kmh SW 5.0 mph8.0 kmh 30.53 in1033.9 mb 0.00 in0.0 mm 0.00 in0.0 mm 0.00 in0.0 mm
12:44 AM 3.9°F-15.6°C -2.5°F-19.2°C 74% 3.0 mph SW4.8 kmh SW 5.0 mph8.0 kmh 30.53 in1033.9 mb 0.00 in0.0 mm 0.00 in0.0 mm 0.00 in0.0 mm
12:49 AM 3.8°F-15.7°C -2.6°F-19.2°C 74% 1.0 mph SSW1.6 kmh SSW 5.0 mph8.0 kmh 30.53 in1033.9 mb 0.00 in0.0 mm 0.00 in0.0 mm 0.00 in0.0 mm
12:54 AM 3.8°F-15.7°C -2.6°F-19.2°C 74% 2.0 mph S3.2 kmh S 4.0 mph6.4 kmh 30.53 in1033.9 mb 0.00 in0.0 mm 0.00 in0.0 mm 0.00 in0.0 mm
12:59 AM 3.7°F-15.7°C -2.7°F-19.3°C 74% 2.0 mph S3.2 kmh S 4.0 mph6.4 kmh 30.53 in1033.9 mb 0.00 in0.0 mm 0.00 in0.0 mm 0.00 in0.0 mm
01:04 AM 3.6°F-15.8°C -2.8°F-19.3°C 74% 2.0 mph SSW3.2 kmh SSW 3.0 mph4.8 kmh 30.53 in1033.9 mb 0.00 in0.0 mm 0.00 in0.0 mm 0.00 in0.0 mm
01:09 AM 3.5°F-15.8°C -2.9°F-19.4°C 74% 2.0 mph SSW3.2 kmh SSW 3.0 mph4.8 kmh 30.53 in1033.9 mb 0.00 in0.0 mm 0.00 in0.0 mm 0.00 in0.0 mm
01:14 AM 3.4°F-15.9°C -2.7°F-19.3°C 75% 2.0 mph S3.2 kmh S 3.0 mph4.8 kmh 30.53 in1033.9 mb 0.00 in0.0 mm 0.00 in0.0 mm 0.00 in0.0 mm
01:19 AM 3.3°F-15.9°C -3.1°F-19.5°C 74% 2.0 mph SSW3.2 kmh SSW 3.0 mph4.8 kmh 30.53 in1033.9 mb 0.00 in0.0 mm 0.00 in0.0 mm 0.00 in0.0 mm
01:24 AM 3.2°F-16.0°C -2.9°F-19.4°C 75% 2.0 mph SSW3.2 kmh SSW 3.0 mph4.8 kmh 30.53 in1033.9 mb 0.00 in0.0 mm 0.00 in0.0 mm 0.00 in0.0 mm
01:29 AM 3.1°F-16.1°C -3.0°F-19.4°C 75% 2.0 mph S3.2 kmh S 3.0 mph4.8 kmh 30.53 in1033.9 mb 0.00 in0.0 mm 0.00 in0.0 mm 0.00 in0.0 mm
01:34 AM 3.1°F-16.1°C -3.0°F-19.4°C 75% 1.0 mph SSW1.6 kmh SSW 3.0 mph4.8 kmh 30.53 in1033.9 mb 0.00 in0.0 mm 0.00 in0.0 mm 0.00 in0.0 mm
01:39 AM 3.1°F-16.1°C -3.0°F-19.4°C 75% 1.0 mph S1.6 kmh S 3.0 mph4.8 kmh 30.53 in1033.9 mb 0.00 in0.0 mm 0.00 in0.0 mm 0.00 in0.0 mm
01:44 AM 3.0°F-16.1°C -3.1°F-19.5°C 75% 1.0 mph SSW1.6 kmh SSW 3.0 mph4.8 kmh 30.53 in1033.9 mb 0.00 in0.0 mm 0.00 in0.0 mm 0.00 in0.0 mm
01:49 AM 2.9°F-16.2°C -3.2°F-19.6°C 75% 2.0 mph S3.2 kmh S 3.0 mph4.8 kmh 30.53 in1033.9 mb 0.00 in0.0 mm 0.00 in0.0 mm 0.00 in0.0 mm
01:54 AM 2.9°F-16.2°C -3.2°F-19.6°C 75% 1.0 mph SSW1.6 kmh SSW 3.0 mph4.8 kmh 30.53 in1033.9 mb 0.00 in0.0 mm 0.00 in0.0 mm 0.00 in0.0 mm
01:59 AM 2.8°F-16.2°C -3.3°F-19.6°C 75% 1.0 mph SSW1.6 kmh SSW 3.0 mph4.8 kmh 30.53 in1033.9 mb 0.00 in0.0 mm 0.00 in0.0 mm 0.00 in0.0 mm
02:04 AM 2.8°F-16.2°C -3.3°F-19.6°C 75% 2.0 mph SSW3.2 kmh SSW 2.0 mph3.2 kmh 30.54 in1034.2 mb 0.00 in0.0 mm 0.00 in0.0 mm 0.00 in0.0 mm
02:09 AM 2.7°F-16.3°C -3.4°F-19.7°C 75% 1.0 mph SSW1.6 kmh SSW 2.0 mph3.2 kmh 30.54 in1034.2 mb 0.00 in0.0 mm 0.00 in0.0 mm 0.00 in0.0 mm
02:14 AM 2.7°F-16.3°C -3.1°F-19.5°C 76% 2.0 mph SSW3.2 kmh SSW 3.0 mph4.8 kmh 30.54 in1034.2 mb 0.00 in0.0 mm 0.00 in0.0 mm 0.00 in0.0 mm
02:19 AM 2.7°F-16.3°C -3.1°F-19.5°C 76% 2.0 mph SSW3.2 kmh SSW 3.0 mph4.8 kmh 30.54 in1034.2 mb 0.00 in0.0 mm 0.00 in0.0 mm 0.00 in0.0 mm
02:24 AM 2.6°F-16.3°C -3.2°F-19.6°C 76% 2.0 mph SSW3.2 kmh SSW 3.0 mph4.8 kmh 30.54 in1034.2 mb 0.00 in0.0 mm 0.00 in0.0 mm 0.00 in0.0 mm
02:29 AM 2.6°F-16.3°C -3.2°F-19.6°C 76% 2.0 mph SW3.2 kmh SW 3.0 mph4.8 kmh 30.54 in1034.2 mb 0.00 in0.0 mm 0.00 in0.0 mm 0.00 in0.0 mm
02:34 AM 2.6°F-16.3°C -3.2°F-19.6°C 76% 2.0 mph SSW3.2 kmh SSW 4.0 mph6.4 kmh 30.54 in1034.2 mb 0.00 in0.0 mm 0.00 in0.0 mm 0.00 in0.0 mm
02:39 AM 2.6°F-16.3°C -3.2°F-19.6°C 76% 2.0 mph S3.2 kmh S 4.0 mph6.4 kmh 30.54 in1034.2 mb 0.00 in0.0 mm 0.00 in0.0 mm 0.00 in0.0 mm
02:44 AM 2.5°F-16.4°C -3.3°F-19.6°C 76% 2.0 mph SW3.2 kmh SW 4.0 mph6.4 kmh 30.54 in1034.2 mb 0.00 in0.0 mm 0.00 in0.0 mm 0.00 in0.0 mm
02:49 AM 2.5°F-16.4°C -3.3°F-19.6°C 76% 1.0 mph SW1.6 kmh SW 4.0 mph6.4 kmh 30.54 in1034.2 mb 0.00 in0.0 mm 0.00 in0.0 mm 0.00 in0.0 mm
02:54 AM 2.5°F-16.4°C -3.3°F-19.6°C 76% 3.0 mph SW4.8 kmh SW 3.0 mph4.8 kmh 30.55 in1034.5 mb 0.00 in0.0 mm 0.00 in0.0 mm 0.00 in0.0 mm
02:59 AM 2.5°F-16.4°C -3.3°F-19.6°C 76% 1.0 mph SW1.6 kmh SW 3.0 mph4.8 kmh 30.55 in1034.5 mb 0.00 in0.0 mm 0.00 in0.0 mm 0.00 in0.0 mm
03:04 AM 2.5°F-16.4°C -3.0°F-19.4°C 77% 2.0 mph SW3.2 kmh SW 4.0 mph6.4 kmh 30.55 in1034.5 mb 0.00 in0.0 mm 0.00 in0.0 mm 0.00 in0.0 mm
03:09 AM 2.6°F-16.3°C -3.2°F-19.6°C 76% 2.0 mph SW3.2 kmh SW 4.0 mph6.4 kmh 30.55 in1034.5 mb 0.00 in0.0 mm 0.00 in0.0 mm 0.00 in0.0 mm
03:14 AM 2.5°F-16.4°C -3.0°F-19.4°C 77% 2.0 mph SW3.2 kmh SW 4.0 mph6.4 kmh 30.55 in1034.5 mb 0.00 in0.0 mm 0.00 in0.0 mm 0.00 in0.0 mm
03:19 AM 2.5°F-16.4°C -3.0°F-19.4°C 77% 1.0 mph SW1.6 kmh SW 4.0 mph6.4 kmh 30.55 in1034.5 mb 0.00 in0.0 mm 0.00 in0.0 mm 0.00 in0.0 mm
03:24 AM 2.5°F-16.4°C -3.0°F-19.4°C 77% 1.0 mph SW1.6 kmh SW 3.0 mph4.8 kmh 30.55 in1034.5 mb 0.00 in0.0 mm 0.00 in0.0 mm 0.00 in0.0 mm
03:29 AM 2.4°F-16.4°C -3.1°F-19.5°C 77% 1.0 mph SW1.6 kmh SW 3.0 mph4.8 kmh 30.55 in1034.5 mb 0.00 in0.0 mm 0.00 in0.0 mm 0.00 in0.0 mm
03:34 AM 2.4°F-16.4°C -3.1°F-19.5°C 77% 1.0 mph SW1.6 kmh SW 3.0 mph4.8 kmh 30.55 in1034.5 mb 0.00 in0.0 mm 0.00 in0.0 mm 0.00 in0.0 mm
03:39 AM 2.3°F-16.5°C -3.2°F-19.6°C 77% 1.0 mph SW1.6 kmh SW 3.0 mph4.8 kmh 30.55 in1034.5 mb 0.00 in0.0 mm 0.00 in0.0 mm 0.00 in0.0 mm
03:44 AM 2.3°F-16.5°C -3.2°F-19.6°C 77% 2.0 mph SW3.2 kmh SW 3.0 mph4.8 kmh 30.54 in1034.2 mb 0.00 in0.0 mm 0.00 in0.0 mm 0.00 in0.0 mm
03:49 AM 2.2°F-16.6°C -3.3°F-19.6°C 77% 2.0 mph SW3.2 kmh SW 3.0 mph4.8 kmh 30.55 in1034.5 mb 0.00 in0.0 mm 0.00 in0.0 mm 0.00 in0.0 mm
03:54 AM 2.2°F-16.6°C -3.3°F-19.6°C 77% 1.0 mph W1.6 kmh W 4.0 mph6.4 kmh 30.55 in1034.5 mb 0.00 in0.0 mm 0.00 in0.0 mm 0.00 in0.0 mm
03:59 AM 2.2°F-16.6°C -3.3°F-19.6°C 77% 2.0 mph WSW3.2 kmh WSW 4.0 mph6.4 kmh 30.55 in1034.5 mb 0.00 in0.0 mm 0.00 in0.0 mm 0.00 in0.0 mm
04:04 AM 2.2°F-16.6°C -3.3°F-19.6°C 77% 1.0 mph SW1.6 kmh SW 4.0 mph6.4 kmh 30.55 in1034.5 mb 0.00 in0.0 mm 0.00 in0.0 mm 0.00 in0.0 mm
04:09 AM 2.1°F-16.6°C -3.4°F-19.7°C 77% 2.0 mph WSW3.2 kmh WSW 4.0 mph6.4 kmh 30.55 in1034.5 mb 0.00 in0.0 mm 0.00 in0.0 mm 0.00 in0.0 mm
04:14 AM 2.1°F-16.6°C -3.4°F-19.7°C 77% 3.0 mph WSW4.8 kmh WSW 4.0 mph6.4 kmh 30.55 in1034.5 mb 0.00 in0.0 mm 0.00 in0.0 mm 0.00 in0.0 mm
04:19 AM 2.1°F-16.6°C -3.4°F-19.7°C 77% 1.0 mph WSW1.6 kmh WSW 4.0 mph6.4 kmh 30.54 in1034.2 mb 0.00 in0.0 mm 0.00 in0.0 mm 0.00 in0.0 mm
04:24 AM 2.0°F-16.7°C -3.5°F-19.7°C 77% 1.0 mph WSW1.6 kmh WSW 4.0 mph6.4 kmh 30.54 in1034.2 mb 0.00 in0.0 mm 0.00 in0.0 mm 0.00 in0.0 mm
04:29 AM 1.9°F-16.7°C -3.6°F-19.8°C 77% 1.0 mph WSW1.6 kmh WSW 4.0 mph6.4 kmh 30.54 in1034.2 mb 0.00 in0.0 mm 0.00 in0.0 mm 0.00 in0.0 mm
04:34 AM 1.8°F-16.8°C -3.7°F-19.8°C 77% 2.0 mph WSW3.2 kmh WSW 4.0 mph6.4 kmh 30.54 in1034.2 mb 0.00 in0.0 mm 0.00 in0.0 mm 0.00 in0.0 mm
04:39 AM 1.8°F-16.8°C -3.7°F-19.8°C 77% 2.0 mph WSW3.2 kmh WSW 4.0 mph6.4 kmh 30.54 in1034.2 mb 0.00 in0.0 mm 0.00 in0.0 mm 0.00 in0.0 mm
04:44 AM 1.8°F-16.8°C -3.7°F-19.8°C 77% 2.0 mph WSW3.2 kmh WSW 3.0 mph4.8 kmh 30.54 in1034.2 mb 0.00 in0.0 mm 0.00 in0.0 mm 0.00 in0.0 mm
04:49 AM 1.7°F-16.8°C -3.8°F-19.9°C 77% 2.0 mph SW3.2 kmh SW 3.0 mph4.8 kmh 30.54 in1034.2 mb 0.00 in0.0 mm 0.00 in0.0 mm 0.00 in0.0 mm
04:54 AM 1.7°F-16.8°C -3.8°F-19.9°C 77% 3.0 mph SSW4.8 kmh SSW 5.0 mph8.0 kmh 30.54 in1034.2 mb 0.00 in0.0 mm 0.00 in0.0 mm 0.00 in0.0 mm
04:59 AM 1.6°F-16.9°C -3.9°F-19.9°C 77% 2.0 mph SW3.2 kmh SW 5.0 mph8.0 kmh 30.53 in1033.9 mb 0.00 in0.0 mm 0.00 in0.0 mm 0.00 in0.0 mm
05:04 AM 1.6°F-16.9°C -3.9°F-19.9°C 77% 2.0 mph SW3.2 kmh SW 5.0 mph8.0 kmh 30.53 in1033.9 mb 0.00 in0.0 mm 0.00 in0.0 mm 0.00 in0.0 mm
05:09 AM 1.6°F-16.9°C -3.9°F-19.9°C 77% 2.0 mph SSW3.2 kmh SSW 6.0 mph9.7 kmh 30.53 in1033.9 mb 0.00 in0.0 mm 0.00 in0.0 mm 0.00 in0.0 mm
05:14 AM 1.6°F-16.9°C -3.9°F-19.9°C 77% 2.0 mph WSW3.2 kmh WSW 6.0 mph9.7 kmh 30.54 in1034.2 mb 0.00 in0.0 mm 0.00 in0.0 mm 0.00 in0.0 mm
05:19 AM 1.5°F-16.9°C -4.0°F-20.0°C 77% 2.0 mph SW3.2 kmh SW 6.0 mph9.7 kmh 30.54 in1034.2 mb 0.00 in0.0 mm 0.00 in0.0 mm 0.00 in0.0 mm
05:24 AM 1.4°F-17.0°C -4.1°F-20.1°C 77% 3.0 mph SW4.8 kmh SW 6.0 mph9.7 kmh 30.53 in1033.9 mb 0.00 in0.0 mm 0.00 in0.0 mm 0.00 in0.0 mm
05:29 AM 1.4°F-17.0°C -4.1°F-20.1°C 77% 5.0 mph SW8.0 kmh SW 5.0 mph8.0 kmh 30.54 in1034.2 mb 0.00 in0.0 mm 0.00 in0.0 mm 0.00 in0.0 mm
05:34 AM 1.4°F-17.0°C -4.1°F-20.1°C 77% 2.0 mph WSW3.2 kmh WSW 5.0 mph8.0 kmh 30.54 in1034.2 mb 0.00 in0.0 mm 0.00 in0.0 mm 0.00 in0.0 mm
05:39 AM 1.3°F-17.1°C -4.2°F-20.1°C 77% 2.0 mph SW3.2 kmh SW 5.0 mph8.0 kmh 30.54 in1034.2 mb 0.00 in0.0 mm 0.00 in0.0 mm 0.00 in0.0 mm
05:44 AM 1.2°F-17.1°C -4.5°F-20.3°C 76% 1.0 mph SW1.6 kmh SW 5.0 mph8.0 kmh 30.54 in1034.2 mb 0.00 in0.0 mm 0.00 in0.0 mm 0.00 in0.0 mm
05:49 AM 1.1°F-17.2°C -4.6°F-20.3°C 76% 5.0 mph WSW8.0 kmh WSW 5.0 mph8.0 kmh 30.54 in1034.2 mb 0.00 in0.0 mm 0.00 in0.0 mm 0.00 in0.0 mm
05:54 AM 1.0°F-17.2°C -4.7°F-20.4°C 76% 2.0 mph WSW3.2 kmh WSW 5.0 mph8.0 kmh 30.54 in1034.2 mb 0.00 in0.0 mm 0.00 in0.0 mm 0.00 in0.0 mm
05:59 AM 0.9°F-17.3°C -4.8°F-20.4°C 76% 2.0 mph WSW3.2 kmh WSW 5.0 mph8.0 kmh 30.54 in1034.2 mb 0.00 in0.0 mm 0.00 in0.0 mm 0.00 in0.0 mm
06:04 AM 0.9°F-17.3°C -4.8°F-20.4°C 76% 2.0 mph SW3.2 kmh SW 5.0 mph8.0 kmh 30.54 in1034.2 mb 0.00 in0.0 mm 0.00 in0.0 mm 0.00 in0.0 mm
06:09 AM 0.8°F-17.3°C -4.9°F-20.5°C 76% 4.0 mph SW6.4 kmh SW 6.0 mph9.7 kmh 30.54 in1034.2 mb 0.00 in0.0 mm 0.00 in0.0 mm 0.00 in0.0 mm
06:14 AM 0.8°F-17.3°C -4.9°F-20.5°C 76% 3.0 mph SW4.8 kmh SW 6.0 mph9.7 kmh 30.54 in1034.2 mb 0.00 in0.0 mm 0.00 in0.0 mm 0.00 in0.0 mm
06:19 AM 0.7°F-17.4°C -5.0°F-20.6°C 76% 3.0 mph SW4.8 kmh SW 6.0 mph9.7 kmh 30.54 in1034.2 mb 0.00 in0.0 mm 0.00 in0.0 mm 0.00 in0.0 mm
06:24 AM 0.7°F-17.4°C -5.0°F-20.6°C 76% 2.0 mph SSW3.2 kmh SSW 6.0 mph9.7 kmh 30.54 in1034.2 mb 0.00 in0.0 mm 0.00 in0.0 mm 0.00 in0.0 mm
06:29 AM 0.7°F-17.4°C -5.0°F-20.6°C 76% 2.0 mph SW3.2 kmh SW 4.0 mph6.4 kmh 30.54 in1034.2 mb 0.00 in0.0 mm 0.00 in0.0 mm 0.00 in0.0 mm
06:34 AM 0.5°F-17.5°C -5.2°F-20.7°C 76% 2.0 mph SW3.2 kmh SW 4.0 mph6.4 kmh 30.55 in1034.5 mb 0.00 in0.0 mm 0.00 in0.0 mm 0.00 in0.0 mm
06:39 AM 0.5°F-17.5°C -5.2°F-20.7°C 76% 3.0 mph SW4.8 kmh SW 5.0 mph8.0 kmh 30.55 in1034.5 mb 0.00 in0.0 mm 0.00 in0.0 mm 0.00 in0.0 mm
06:44 AM 0.4°F-17.6°C -5.3°F-20.7°C 76% 4.0 mph SW6.4 kmh SW 5.0 mph8.0 kmh 30.55 in1034.5 mb 0.00 in0.0 mm 0.00 in0.0 mm 0.00 in0.0 mm
06:49 AM 0.4°F-17.6°C -5.3°F-20.7°C 76% 3.0 mph WSW4.8 kmh WSW 5.0 mph8.0 kmh 30.55 in1034.5 mb 0.00 in0.0 mm 0.00 in0.0 mm 0.00 in0.0 mm
06:54 AM 0.4°F-17.6°C -5.3°F-20.7°C 76% 5.0 mph SW8.0 kmh SW 6.0 mph9.7 kmh 30.55 in1034.5 mb 0.00 in0.0 mm 0.00 in0.0 mm 0.00 in0.0 mm
06:59 AM 0.6°F-17.4°C -5.1°F-20.6°C 76% 4.0 mph SW6.4 kmh SW 6.0 mph9.7 kmh 30.55 in1034.5 mb 0.00 in0.0 mm 0.00 in0.0 mm 0.00 in0.0 mm
07:04 AM 0.8°F-17.3°C -4.9°F-20.5°C 76% 3.0 mph WSW4.8 kmh WSW 6.0 mph9.7 kmh 30.55 in1034.5 mb 0.00 in0.0 mm 0.00 in0.0 mm 0.00 in0.0 mm
07:09 AM 0.9°F-17.3°C -4.8°F-20.4°C 76% 5.0 mph SW8.0 kmh SW 6.0 mph9.7 kmh 30.55 in1034.5 mb 0.00 in0.0 mm 0.00 in0.0 mm 0.00 in0.0 mm
07:14 AM 1.1°F-17.2°C -4.4°F-20.2°C 77% 3.0 mph SW4.8 kmh SW 6.0 mph9.7 kmh 30.56 in1034.9 mb 0.00 in0.0 mm 0.00 in0.0 mm 0.00 in0.0 mm
07:19 AM 1.3°F-17.1°C -4.2°F-20.1°C 77% 4.0 mph SW6.4 kmh SW 6.0 mph9.7 kmh 30.55 in1034.5 mb 0.00 in0.0 mm 0.00 in0.0 mm 0.00 in0.0 mm
07:24 AM 1.5°F-16.9°C -4.0°F-20.0°C 77% 4.0 mph WSW6.4 kmh WSW 5.0 mph8.0 kmh 30.56 in1034.9 mb 0.00 in0.0 mm 0.00 in0.0 mm 0.00 in0.0 mm
07:29 AM 1.7°F-16.8°C -3.8°F-19.9°C 77% 2.0 mph SW3.2 kmh SW 5.0 mph8.0 kmh 30.55 in1034.5 mb 0.00 in0.0 mm 0.00 in0.0 mm 0.00 in0.0 mm
07:34 AM 1.8°F-16.8°C -3.7°F-19.8°C 77% 3.0 mph SW4.8 kmh SW 5.0 mph8.0 kmh 30.55 in1034.5 mb 0.00 in0.0 mm 0.00 in0.0 mm 0.00 in0.0 mm
07:39 AM 2.0°F-16.7°C -3.5°F-19.7°C 77% 3.0 mph SW4.8 kmh SW 5.0 mph8.0 kmh 30.55 in1034.5 mb 0.00 in0.0 mm 0.00 in0.0 mm 0.00 in0.0 mm
07:44 AM 2.1°F-16.6°C -3.4°F-19.7°C 77% 3.0 mph WSW4.8 kmh WSW 4.0 mph6.4 kmh 30.56 in1034.9 mb 0.00 in0.0 mm 0.00 in0.0 mm 0.00 in0.0 mm
07:49 AM 2.2°F-16.6°C -3.3°F-19.6°C 77% 1.0 mph WSW1.6 kmh WSW 4.0 mph6.4 kmh 30.56 in1034.9 mb 0.00 in0.0 mm 0.00 in0.0 mm 0.00 in0.0 mm
07:54 AM 2.3°F-16.5°C -3.2°F-19.6°C 77% 2.0 mph WSW3.2 kmh WSW 4.0 mph6.4 kmh 30.55 in1034.5 mb 0.00 in0.0 mm 0.00 in0.0 mm 0.00 in0.0 mm
07:59 AM 2.5°F-16.4°C -3.0°F-19.4°C 77% 3.0 mph SW4.8 kmh SW 5.0 mph8.0 kmh 30.56 in1034.9 mb 0.00 in0.0 mm 0.00 in0.0 mm 0.00 in0.0 mm
08:04 AM 2.7°F-16.3°C -2.5°F-19.2°C 78% 2.0 mph WSW3.2 kmh WSW 5.0 mph8.0 kmh 30.56 in1034.9 mb 0.00 in0.0 mm 0.00 in0.0 mm 0.00 in0.0 mm
08:09 AM 3.0°F-16.1°C -2.2°F-19.0°C 78% 3.0 mph W4.8 kmh W 5.0 mph8.0 kmh 30.56 in1034.9 mb 0.00 in0.0 mm 0.00 in0.0 mm 0.00 in0.0 mm
08:14 AM 3.3°F-15.9°C -1.9°F-18.8°C 78% 3.0 mph WSW4.8 kmh WSW 5.0 mph8.0 kmh 30.56 in1034.9 mb 0.00 in0.0 mm 0.00 in0.0 mm 0.00 in0.0 mm
08:19 AM 3.6°F-15.8°C -1.7°F-18.7°C 78% 2.0 mph WSW3.2 kmh WSW 5.0 mph8.0 kmh 30.56 in1034.9 mb 0.00 in0.0 mm 0.00 in0.0 mm 0.00 in0.0 mm
08:24 AM 3.9°F-15.6°C -1.4°F-18.6°C 78% 4.0 mph WSW6.4 kmh WSW 5.0 mph8.0 kmh 30.56 in1034.9 mb 0.00 in0.0 mm 0.00 in0.0 mm 0.00 in0.0 mm
08:29 AM 4.3°F-15.4°C -0.7°F-18.2°C 79% 2.0 mph W3.2 kmh W 7.0 mph11.3 kmh 30.56 in1034.9 mb 0.00 in0.0 mm 0.00 in0.0 mm 0.00 in0.0 mm
08:34 AM 4.5°F-15.3°C -0.5°F-18.1°C 79% 2.0 mph WSW3.2 kmh WSW 7.0 mph11.3 kmh 30.56 in1034.9 mb 0.00 in0.0 mm 0.00 in0.0 mm 0.00 in0.0 mm
08:39 AM 4.7°F-15.2°C -0.3°F-17.9°C 79% 1.0 mph WSW1.6 kmh WSW 7.0 mph11.3 kmh 30.56 in1034.9 mb 0.00 in0.0 mm 0.00 in0.0 mm 0.00 in0.0 mm
08:44 AM 4.9°F-15.1°C -0.1°F-17.8°C 79% 3.0 mph W4.8 kmh W 7.0 mph11.3 kmh 30.56 in1034.9 mb 0.00 in0.0 mm 0.00 in0.0 mm 0.00 in0.0 mm
08:49 AM 5.1°F-14.9°C 0.1°F-17.7°C 79% 2.0 mph WSW3.2 kmh WSW 6.0 mph9.7 kmh 30.56 in1034.9 mb 0.00 in0.0 mm 0.00 in0.0 mm 0.00 in0.0 mm
08:54 AM 5.3°F-14.8°C 0.3°F-17.6°C 79% 2.0 mph SW3.2 kmh SW 7.0 mph11.3 kmh 30.56 in1034.9 mb 0.00 in0.0 mm 0.00 in0.0 mm 0.00 in0.0 mm
08:59 AM 5.6°F-14.7°C 0.6°F-17.4°C 79% 4.0 mph WSW6.4 kmh WSW 7.0 mph11.3 kmh 30.56 in1034.9 mb 0.00 in0.0 mm 0.00 in0.0 mm 0.00 in0.0 mm
09:04 AM 5.7°F-14.6°C 0.7°F-17.4°C 79% 3.0 mph WSW4.8 kmh WSW 7.0 mph11.3 kmh 30.56 in1034.9 mb 0.00 in0.0 mm 0.00 in0.0 mm 0.00 in0.0 mm
09:09 AM 5.9°F-14.5°C 0.9°F-17.3°C 79% 5.0 mph WSW8.0 kmh WSW 7.0 mph11.3 kmh 30.57 in1035.2 mb 0.00 in0.0 mm 0.00 in0.0 mm 0.00 in0.0 mm
09:14 AM 6.1°F-14.4°C 1.0°F-17.2°C 79% 2.0 mph WSW3.2 kmh WSW 7.0 mph11.3 kmh 30.57 in1035.2 mb 0.00 in0.0 mm 0.00 in0.0 mm 0.00 in0.0 mm
09:19 AM 6.2°F-14.3°C 1.1°F-17.2°C 79% 3.0 mph WSW4.8 kmh WSW 7.0 mph11.3 kmh 30.57 in1035.2 mb 0.00 in0.0 mm 0.00 in0.0 mm 0.00 in0.0 mm
09:24 AM 6.4°F-14.2°C 1.3°F-17.1°C 79% 4.0 mph SW6.4 kmh SW 8.0 mph12.9 kmh 30.57 in1035.2 mb 0.00 in0.0 mm 0.00 in0.0 mm 0.00 in0.0 mm
09:29 AM 6.5°F-14.2°C 1.4°F-17.0°C 79% 5.0 mph WSW8.0 kmh WSW 8.0 mph12.9 kmh 30.57 in1035.2 mb 0.00 in0.0 mm 0.00 in0.0 mm 0.00 in0.0 mm
09:34 AM 6.6°F-14.1°C 1.3°F-17.1°C 78% 2.0 mph WSW3.2 kmh WSW 8.0 mph12.9 kmh 30.57 in1035.2 mb 0.00 in0.0 mm 0.00 in0.0 mm 0.00 in0.0 mm
09:39 AM 6.8°F-14.0°C 1.5°F-16.9°C 78% 6.0 mph SW9.7 kmh SW 8.0 mph12.9 kmh 30.57 in1035.2 mb 0.00 in0.0 mm 0.00 in0.0 mm 0.00 in0.0 mm
09:44 AM 7.0°F-13.9°C 1.6°F-16.9°C 78% 8.0 mph W12.9 kmh W 9.0 mph14.5 kmh 30.57 in1035.2 mb 0.00 in0.0 mm 0.00 in0.0 mm 0.00 in0.0 mm
09:49 AM 7.0°F-13.9°C 1.4°F-17.0°C 77% 8.0 mph WSW12.9 kmh WSW 10.0 mph16.1 kmh 30.57 in1035.2 mb 0.00 in0.0 mm 0.00 in0.0 mm 0.00 in0.0 mm
09:54 AM 7.1°F-13.8°C 1.5°F-16.9°C 77% 8.0 mph WSW12.9 kmh WSW 10.0 mph16.1 kmh 30.57 in1035.2 mb 0.00 in0.0 mm 0.00 in0.0 mm 0.00 in0.0 mm
09:59 AM 7.3°F-13.7°C 1.4°F-17.0°C 76% 8.0 mph W12.9 kmh W 10.0 mph16.1 kmh 30.57 in1035.2 mb 0.00 in0.0 mm 0.00 in0.0 mm 0.00 in0.0 mm
10:04 AM 7.5°F-13.6°C 1.6°F-16.9°C 76% 8.0 mph SW12.9 kmh SW 10.0 mph16.1 kmh 30.57 in1035.2 mb 0.00 in0.0 mm 0.00 in0.0 mm 0.00 in0.0 mm
10:09 AM 7.7°F-13.5°C 1.8°F-16.8°C 76% 7.0 mph W11.3 kmh W 10.0 mph16.1 kmh 30.58 in1035.6 mb 0.00 in0.0 mm 0.00 in0.0 mm 0.00 in0.0 mm
10:14 AM 7.9°F-13.4°C 1.9°F-16.7°C 76% 6.0 mph WSW9.7 kmh WSW 10.0 mph16.1 kmh 30.58 in1035.6 mb 0.00 in0.0 mm 0.00 in0.0 mm 0.00 in0.0 mm
10:19 AM 8.1°F-13.3°C 2.1°F-16.6°C 76% 3.0 mph WSW4.8 kmh WSW 10.0 mph16.1 kmh 30.58 in1035.6 mb 0.00 in0.0 mm 0.00 in0.0 mm 0.00 in0.0 mm
10:24 AM 8.5°F-13.1°C 2.5°F-16.4°C 76% 8.0 mph W12.9 kmh W 11.0 mph17.7 kmh 30.58 in1035.6 mb 0.00 in0.0 mm 0.00 in0.0 mm 0.00 in0.0 mm
10:29 AM 8.8°F-12.9°C 2.8°F-16.2°C 76% 4.0 mph WSW6.4 kmh WSW 11.0 mph17.7 kmh 30.58 in1035.6 mb 0.00 in0.0 mm 0.00 in0.0 mm 0.00 in0.0 mm
10:34 AM 9.1°F-12.7°C 3.1°F-16.1°C 76% 3.0 mph WSW4.8 kmh WSW 11.0 mph17.7 kmh 30.58 in1035.6 mb 0.00 in0.0 mm 0.00 in0.0 mm 0.00 in0.0 mm
10:39 AM 9.5°F-12.5°C 3.5°F-15.8°C 76% 5.0 mph WSW8.0 kmh WSW 11.0 mph17.7 kmh 30.58 in1035.6 mb 0.00 in0.0 mm 0.00 in0.0 mm 0.00 in0.0 mm
10:44 AM 9.6°F-12.4°C 3.3°F-15.9°C 75% 3.0 mph SW4.8 kmh SW 10.0 mph16.1 kmh 30.58 in1035.6 mb 0.00 in0.0 mm 0.00 in0.0 mm 0.00 in0.0 mm
10:49 AM 9.7°F-12.4°C 3.4°F-15.9°C 75% 4.0 mph WSW6.4 kmh WSW 10.0 mph16.1 kmh 30.58 in1035.6 mb 0.00 in0.0 mm 0.00 in0.0 mm 0.00 in0.0 mm
10:54 AM 9.8°F-12.3°C 3.5°F-15.8°C 75% 6.0 mph WSW9.7 kmh WSW 8.0 mph12.9 kmh 30.58 in1035.6 mb 0.00 in0.0 mm 0.00 in0.0 mm 0.00 in0.0 mm
10:59 AM 10.1°F-12.2°C 3.8°F-15.7°C 75% 3.0 mph WSW4.8 kmh WSW 9.0 mph14.5 kmh 30.58 in1035.6 mb 0.00 in0.0 mm 0.00 in0.0 mm 0.00 in0.0 mm
11:04 AM 10.2°F-12.1°C 3.9°F-15.6°C 75% 4.0 mph WSW6.4 kmh WSW 10.0 mph16.1 kmh 30.58 in1035.6 mb 0.00 in0.0 mm 0.00 in0.0 mm 0.00 in0.0 mm
11:09 AM 10.3°F-12.1°C 4.0°F-15.6°C 75% 8.0 mph WSW12.9 kmh WSW 10.0 mph16.1 kmh 30.58 in1035.6 mb 0.00 in0.0 mm 0.00 in0.0 mm 0.00 in0.0 mm
11:14 AM 10.4°F-12.0°C 4.1°F-15.5°C 75% 4.0 mph WSW6.4 kmh WSW 10.0 mph16.1 kmh 30.58 in1035.6 mb 0.00 in0.0 mm 0.00 in0.0 mm 0.00 in0.0 mm
11:19 AM 10.6°F-11.9°C 4.3°F-15.4°C 75% 4.0 mph WSW6.4 kmh WSW 10.0 mph16.1 kmh 30.58 in1035.6 mb 0.00 in0.0 mm 0.00 in0.0 mm 0.00 in0.0 mm
11:24 AM 10.9°F-11.7°C 4.6°F-15.2°C 75% 3.0 mph WSW4.8 kmh WSW 9.0 mph14.5 kmh 30.58 in1035.6 mb 0.00 in0.0 mm 0.00 in0.0 mm 0.00 in0.0 mm
11:29 AM 11.1°F-11.6°C 4.7°F-15.2°C 75% 1.0 mph W1.6 kmh W 9.0 mph14.5 kmh 30.58 in1035.6 mb 0.00 in0.0 mm 0.00 in0.0 mm 0.00 in0.0 mm
11:34 AM 11.3°F-11.5°C 4.9°F-15.1°C 75% 4.0 mph WSW6.4 kmh WSW 9.0 mph14.5 kmh 30.58 in1035.6 mb 0.00 in0.0 mm 0.00 in0.0 mm 0.00 in0.0 mm
11:39 AM 11.4°F-11.4°C 5.0°F-15.0°C 75% 8.0 mph WSW12.9 kmh WSW 11.0 mph17.7 kmh 30.58 in1035.6 mb 0.00 in0.0 mm 0.00 in0.0 mm 0.00 in0.0 mm
11:44 AM 11.4°F-11.4°C 5.0°F-15.0°C 75% 6.0 mph W9.7 kmh W 16.0 mph25.7 kmh 30.58 in1035.6 mb 0.00 in0.0 mm 0.00 in0.0 mm 0.00 in0.0 mm
11:49 AM 11.4°F-11.4°C 4.7°F-15.2°C 74% 7.0 mph WSW11.3 kmh WSW 16.0 mph25.7 kmh 30.57 in1035.2 mb 0.00 in0.0 mm 0.00 in0.0 mm 0.00 in0.0 mm
11:54 AM 11.4°F-11.4°C 4.7°F-15.2°C 74% 6.0 mph WSW9.7 kmh WSW 16.0 mph25.7 kmh 30.57 in1035.2 mb 0.00 in0.0 mm 0.00 in0.0 mm 0.00 in0.0 mm
11:59 AM 11.5°F-11.4°C 4.5°F-15.3°C 73% 7.0 mph WSW11.3 kmh WSW 16.0 mph25.7 kmh 30.57 in1035.2 mb 0.00 in0.0 mm 0.00 in0.0 mm 0.00 in0.0 mm
12:04 PM 11.4°F-11.4°C 4.4°F-15.3°C 73% 7.0 mph WSW11.3 kmh WSW 15.0 mph24.1 kmh 30.57 in1035.2 mb 0.00 in0.0 mm 0.00 in0.0 mm 0.00 in0.0 mm
12:09 PM 11.4°F-11.4°C 4.1°F-15.5°C 72% 7.0 mph WSW11.3 kmh WSW 15.0 mph24.1 kmh 30.57 in1035.2 mb 0.00 in0.0 mm 0.00 in0.0 mm 0.00 in0.0 mm
12:14 PM 11.5°F-11.4°C 4.2°F-15.4°C 72% 8.0 mph W12.9 kmh W 12.0 mph19.3 kmh 30.57 in1035.2 mb 0.00 in0.0 mm 0.00 in0.0 mm 0.00 in0.0 mm
12:19 PM 11.5°F-11.4°C 3.9°F-15.6°C 71% 6.0 mph W9.7 kmh W 13.0 mph20.9 kmh 30.57 in1035.2 mb 0.00 in0.0 mm 0.00 in0.0 mm 0.00 in0.0 mm
12:24 PM 11.5°F-11.4°C 3.9°F-15.6°C 71% 10.0 mph WSW16.1 kmh WSW 19.0 mph30.6 kmh 30.56 in1034.9 mb 0.00 in0.0 mm 0.00 in0.0 mm 0.00 in0.0 mm
12:29 PM 11.5°F-11.4°C 3.9°F-15.6°C 71% 5.0 mph W8.0 kmh W 19.0 mph30.6 kmh 30.56 in1034.9 mb 0.00 in0.0 mm 0.00 in0.0 mm 0.00 in0.0 mm
12:34 PM 11.5°F-11.4°C 3.9°F-15.6°C 71% 4.0 mph SW6.4 kmh SW 19.0 mph30.6 kmh 30.56 in1034.9 mb 0.00 in0.0 mm 0.00 in0.0 mm 0.00 in0.0 mm
12:39 PM 11.5°F-11.4°C 4.2°F-15.4°C 72% 8.0 mph W12.9 kmh W 19.0 mph30.6 kmh 30.56 in1034.9 mb 0.00 in0.0 mm 0.00 in0.0 mm 0.00 in0.0 mm
12:44 PM 11.4°F-11.4°C 4.1°F-15.5°C 72% 3.0 mph W4.8 kmh W 15.0 mph24.1 kmh 30.56 in1034.9 mb 0.00 in0.0 mm 0.00 in0.0 mm 0.00 in0.0 mm
12:49 PM 11.3°F-11.5°C 4.3°F-15.4°C 73% 11.0 mph WNW17.7 kmh WNW 15.0 mph24.1 kmh 30.56 in1034.9 mb 0.00 in0.0 mm 0.00 in0.0 mm 0.00 in0.0 mm
12:54 PM 11.3°F-11.5°C 4.3°F-15.4°C 73% 6.0 mph SW9.7 kmh SW 14.0 mph22.5 kmh 30.56 in1034.9 mb 0.00 in0.0 mm 0.00 in0.0 mm 0.00 in0.0 mm
12:59 PM 11.2°F-11.6°C 4.5°F-15.3°C 74% 6.0 mph WNW9.7 kmh WNW 14.0 mph22.5 kmh 30.56 in1034.9 mb 0.00 in0.0 mm 0.00 in0.0 mm 0.00 in0.0 mm
01:04 PM 11.3°F-11.5°C 4.6°F-15.2°C 74% 4.0 mph WNW6.4 kmh WNW 13.0 mph20.9 kmh 30.56 in1034.9 mb 0.00 in0.0 mm 0.00 in0.0 mm 0.00 in0.0 mm
01:09 PM 11.3°F-11.5°C 4.6°F-15.2°C 74% 6.0 mph WSW9.7 kmh WSW 13.0 mph20.9 kmh 30.56 in1034.9 mb 0.00 in0.0 mm 0.00 in0.0 mm 0.00 in0.0 mm
01:14 PM 11.3°F-11.5°C 4.6°F-15.2°C 74% 8.0 mph WSW12.9 kmh WSW 13.0 mph20.9 kmh 30.56 in1034.9 mb 0.00 in0.0 mm 0.00 in0.0 mm 0.00 in0.0 mm
01:19 PM 11.2°F-11.6°C 4.5°F-15.3°C 74% 4.0 mph W6.4 kmh W 13.0 mph20.9 kmh 30.56 in1034.9 mb 0.00 in0.0 mm 0.00 in0.0 mm 0.00 in0.0 mm
01:24 PM 11.2°F-11.6°C 4.8°F-15.1°C 75% 3.0 mph W4.8 kmh W 11.0 mph17.7 kmh 30.55 in1034.5 mb 0.00 in0.0 mm 0.00 in0.0 mm 0.00 in0.0 mm
01:29 PM 11.3°F-11.5°C 4.9°F-15.1°C 75% 3.0 mph W4.8 kmh W 11.0 mph17.7 kmh 30.56 in1034.9 mb 0.00 in0.0 mm 0.00 in0.0 mm 0.00 in0.0 mm
01:34 PM 11.3°F-11.5°C 4.9°F-15.1°C 75% 7.0 mph WNW11.3 kmh WNW 16.0 mph25.7 kmh 30.55 in1034.5 mb 0.00 in0.0 mm 0.00 in0.0 mm 0.00 in0.0 mm
01:39 PM 11.1°F-11.6°C 4.4°F-15.3°C 74% 2.0 mph W3.2 kmh W 16.0 mph25.7 kmh 30.56 in1034.9 mb 0.00 in0.0 mm 0.00 in0.0 mm 0.00 in0.0 mm
01:44 PM 11.1°F-11.6°C 4.7°F-15.2°C 75% 7.0 mph W11.3 kmh W 16.0 mph25.7 kmh 30.55 in1034.5 mb 0.00 in0.0 mm 0.00 in0.0 mm 0.00 in0.0 mm
01:49 PM 11.2°F-11.6°C 4.8°F-15.1°C 75% 8.0 mph WNW12.9 kmh WNW 16.0 mph25.7 kmh 30.56 in1034.9 mb 0.00 in0.0 mm 0.00 in0.0 mm 0.00 in0.0 mm
01:54 PM 11.2°F-11.6°C 5.1°F-14.9°C 76% 6.0 mph WSW9.7 kmh WSW 12.0 mph19.3 kmh 30.56 in1034.9 mb 0.00 in0.0 mm 0.00 in0.0 mm 0.00 in0.0 mm
01:59 PM 11.1°F-11.6°C 5.0°F-15.0°C 76% 7.0 mph WNW11.3 kmh WNW 12.0 mph19.3 kmh 30.56 in1034.9 mb 0.00 in0.0 mm 0.00 in0.0 mm 0.00 in0.0 mm
02:04 PM 11.1°F-11.6°C 5.0°F-15.0°C 76% 6.0 mph W9.7 kmh W 14.0 mph22.5 kmh 30.56 in1034.9 mb 0.00 in0.0 mm 0.00 in0.0 mm 0.00 in0.0 mm
02:09 PM 11.0°F-11.7°C 4.9°F-15.1°C 76% 8.0 mph WNW12.9 kmh WNW 14.0 mph22.5 kmh 30.56 in1034.9 mb 0.00 in0.0 mm 0.00 in0.0 mm 0.00 in0.0 mm
02:14 PM 11.1°F-11.6°C 4.7°F-15.2°C 75% 10.0 mph WNW16.1 kmh WNW 14.0 mph22.5 kmh 30.56 in1034.9 mb 0.00 in0.0 mm 0.00 in0.0 mm 0.00 in0.0 mm
02:19 PM 11.3°F-11.5°C 4.9°F-15.1°C 75% 6.0 mph WNW9.7 kmh WNW 14.0 mph22.5 kmh 30.56 in1034.9 mb 0.00 in0.0 mm 0.00 in0.0 mm 0.00 in0.0 mm
02:24 PM 11.3°F-11.5°C 4.6°F-15.2°C 74% 3.0 mph W4.8 kmh W 13.0 mph20.9 kmh 30.56 in1034.9 mb 0.00 in0.0 mm 0.00 in0.0 mm 0.00 in0.0 mm
02:29 PM 11.3°F-11.5°C 4.6°F-15.2°C 74% 4.0 mph WNW6.4 kmh WNW 15.0 mph24.1 kmh 30.56 in1034.9 mb 0.00 in0.0 mm 0.00 in0.0 mm 0.00 in0.0 mm
02:34 PM 11.3°F-11.5°C 4.3°F-15.4°C 73% 8.0 mph WSW12.9 kmh WSW 16.0 mph25.7 kmh 30.56 in1034.9 mb 0.00 in0.0 mm 0.00 in0.0 mm 0.00 in0.0 mm
02:39 PM 11.3°F-11.5°C 4.0°F-15.6°C 72% 5.0 mph W8.0 kmh W 16.0 mph25.7 kmh 30.56 in1034.9 mb 0.00 in0.0 mm 0.00 in0.0 mm 0.00 in0.0 mm
02:44 PM 11.5°F-11.4°C 3.9°F-15.6°C 71% 5.0 mph W8.0 kmh W 16.0 mph25.7 kmh 30.56 in1034.9 mb 0.00 in0.0 mm 0.00 in0.0 mm 0.00 in0.0 mm
02:49 PM 11.7°F-11.3°C 3.5°F-15.8°C 69% 8.0 mph W12.9 kmh W 16.0 mph25.7 kmh 30.56 in1034.9 mb 0.00 in0.0 mm 0.00 in0.0 mm 0.00 in0.0 mm
02:54 PM 11.9°F-11.2°C 3.0°F-16.1°C 67% 3.0 mph WNW4.8 kmh WNW 14.0 mph22.5 kmh 30.56 in1034.9 mb 0.00 in0.0 mm 0.00 in0.0 mm 0.00 in0.0 mm
02:59 PM 11.9°F-11.2°C 3.0°F-16.1°C 67% 5.0 mph W8.0 kmh W 14.0 mph22.5 kmh 30.56 in1034.9 mb 0.00 in0.0 mm 0.00 in0.0 mm 0.00 in0.0 mm
03:04 PM 12.0°F-11.1°C 3.1°F-16.1°C 67% 12.0 mph W19.3 kmh W 15.0 mph24.1 kmh 30.56 in1034.9 mb 0.00 in0.0 mm 0.00 in0.0 mm 0.00 in0.0 mm
03:09 PM 11.9°F-11.2°C 3.0°F-16.1°C 67% 2.0 mph WNW3.2 kmh WNW 15.0 mph24.1 kmh 30.56 in1034.9 mb 0.00 in0.0 mm 0.00 in0.0 mm 0.00 in0.0 mm
03:14 PM 11.9°F-11.2°C 3.0°F-16.1°C 67% 7.0 mph W11.3 kmh W 15.0 mph24.1 kmh 30.56 in1034.9 mb 0.00 in0.0 mm 0.00 in0.0 mm 0.00 in0.0 mm
03:19 PM 11.9°F-11.2°C 3.0°F-16.1°C 67% 8.0 mph WNW12.9 kmh WNW 15.0 mph24.1 kmh 30.57 in1035.2 mb 0.00 in0.0 mm 0.00 in0.0 mm 0.00 in0.0 mm
03:24 PM 11.8°F-11.2°C 3.2°F-16.0°C 68% 5.0 mph W8.0 kmh W 14.0 mph22.5 kmh 30.57 in1035.2 mb 0.00 in0.0 mm 0.00 in0.0 mm 0.00 in0.0 mm
03:29 PM 11.8°F-11.2°C 3.6°F-15.8°C 69% 3.0 mph W4.8 kmh W 16.0 mph25.7 kmh 30.57 in1035.2 mb 0.00 in0.0 mm 0.00 in0.0 mm 0.00 in0.0 mm
03:34 PM 11.8°F-11.2°C 3.6°F-15.8°C 69% 7.0 mph WNW11.3 kmh WNW 16.0 mph25.7 kmh 30.57 in1035.2 mb 0.00 in0.0 mm 0.00 in0.0 mm 0.00 in0.0 mm
03:39 PM 11.7°F-11.3°C 3.5°F-15.8°C 69% 9.0 mph NW14.5 kmh NW 16.0 mph25.7 kmh 30.57 in1035.2 mb 0.00 in0.0 mm 0.00 in0.0 mm 0.00 in0.0 mm
03:44 PM 11.7°F-11.3°C 3.5°F-15.8°C 69% 5.0 mph W8.0 kmh W 16.0 mph25.7 kmh 30.57 in1035.2 mb 0.00 in0.0 mm 0.00 in0.0 mm 0.00 in0.0 mm
03:49 PM 11.8°F-11.2°C 3.9°F-15.6°C 70% 5.0 mph WSW8.0 kmh WSW 16.0 mph25.7 kmh 30.57 in1035.2 mb 0.00 in0.0 mm 0.00 in0.0 mm 0.00 in0.0 mm
03:54 PM 11.7°F-11.3°C 4.1°F-15.5°C 71% 4.0 mph WSW6.4 kmh WSW 16.0 mph25.7 kmh 30.57 in1035.2 mb 0.00 in0.0 mm 0.00 in0.0 mm 0.00 in0.0 mm
03:59 PM 11.5°F-11.4°C 3.9°F-15.6°C 71% 4.0 mph WSW6.4 kmh WSW 11.0 mph17.7 kmh 30.58 in1035.6 mb 0.00 in0.0 mm 0.00 in0.0 mm 0.00 in0.0 mm
04:04 PM 11.2°F-11.6°C 3.9°F-15.6°C 72% 5.0 mph SW8.0 kmh SW 11.0 mph17.7 kmh 30.58 in1035.6 mb 0.00 in0.0 mm 0.00 in0.0 mm 0.00 in0.0 mm
04:09 PM 11.0°F-11.7°C 4.0°F-15.6°C 73% 2.0 mph WSW3.2 kmh WSW 9.0 mph14.5 kmh 30.58 in1035.6 mb 0.00 in0.0 mm 0.00 in0.0 mm 0.00 in0.0 mm
04:14 PM 10.9°F-11.7°C 4.0°F-15.6°C 73% 5.0 mph WSW8.0 kmh WSW 9.0 mph14.5 kmh 30.58 in1035.6 mb 0.00 in0.0 mm 0.00 in0.0 mm 0.00 in0.0 mm
04:19 PM 10.8°F-11.8°C 4.2°F-15.4°C 74% 5.0 mph WSW8.0 kmh WSW 8.0 mph12.9 kmh 30.58 in1035.6 mb 0.00 in0.0 mm 0.00 in0.0 mm 0.00 in0.0 mm
04:24 PM 10.7°F-11.8°C 4.1°F-15.5°C 74% 4.0 mph WSW6.4 kmh WSW 8.0 mph12.9 kmh 30.58 in1035.6 mb 0.00 in0.0 mm 0.00 in0.0 mm 0.00 in0.0 mm
04:29 PM 10.6°F-11.9°C 4.3°F-15.4°C 75% 5.0 mph WSW8.0 kmh WSW 10.0 mph16.1 kmh 30.59 in1035.9 mb 0.00 in0.0 mm 0.00 in0.0 mm 0.00 in0.0 mm
04:34 PM 10.5°F-11.9°C 4.2°F-15.4°C 75% 3.0 mph WSW4.8 kmh WSW 10.0 mph16.1 kmh 30.59 in1035.9 mb 0.00 in0.0 mm 0.00 in0.0 mm 0.00 in0.0 mm
04:39 PM 10.4°F-12.0°C 4.1°F-15.5°C 75% 10.0 mph WSW16.1 kmh WSW 10.0 mph16.1 kmh 30.59 in1035.9 mb 0.00 in0.0 mm 0.00 in0.0 mm 0.00 in0.0 mm
04:44 PM 10.4°F-12.0°C 4.1°F-15.5°C 75% 5.0 mph WSW8.0 kmh WSW 11.0 mph17.7 kmh 30.59 in1035.9 mb 0.00 in0.0 mm 0.00 in0.0 mm 0.00 in0.0 mm
04:49 PM 10.3°F-12.1°C 4.0°F-15.6°C 75% 4.0 mph WSW6.4 kmh WSW 11.0 mph17.7 kmh 30.59 in1035.9 mb 0.00 in0.0 mm 0.00 in0.0 mm 0.00 in0.0 mm
04:54 PM 10.2°F-12.1°C 3.9°F-15.6°C 75% 4.0 mph WNW6.4 kmh WNW 12.0 mph19.3 kmh 30.59 in1035.9 mb 0.00 in0.0 mm 0.00 in0.0 mm 0.00 in0.0 mm
04:59 PM 10.2°F-12.1°C 4.2°F-15.4°C 76% 5.0 mph WSW8.0 kmh WSW 12.0 mph19.3 kmh 30.59 in1035.9 mb 0.00 in0.0 mm 0.00 in0.0 mm 0.00 in0.0 mm
05:04 PM 10.2°F-12.1°C 4.2°F-15.4°C 76% 3.0 mph WSW4.8 kmh WSW 12.0 mph19.3 kmh 30.59 in1035.9 mb 0.00 in0.0 mm 0.00 in0.0 mm 0.00 in0.0 mm
05:09 PM 10.1°F-12.2°C 4.1°F-15.5°C 76% 5.0 mph WNW8.0 kmh WNW 12.0 mph19.3 kmh 30.59 in1035.9 mb 0.00 in0.0 mm 0.00 in0.0 mm 0.00 in0.0 mm
05:14 PM 10.0°F-12.2°C 4.0°F-15.6°C 76% 8.0 mph W12.9 kmh W 13.0 mph20.9 kmh 30.59 in1035.9 mb 0.00 in0.0 mm 0.00 in0.0 mm 0.00 in0.0 mm
05:19 PM 9.9°F-12.3°C 3.9°F-15.6°C 76% 10.0 mph WSW16.1 kmh WSW 13.0 mph20.9 kmh 30.60 in1036.2 mb 0.00 in0.0 mm 0.00 in0.0 mm 0.00 in0.0 mm
05:24 PM 9.9°F-12.3°C 3.9°F-15.6°C 76% 10.0 mph WSW16.1 kmh WSW 13.0 mph20.9 kmh 30.60 in1036.2 mb 0.00 in0.0 mm 0.00 in0.0 mm 0.00 in0.0 mm
05:29 PM 9.8°F-12.3°C 3.8°F-15.7°C 76% 8.0 mph W12.9 kmh W 13.0 mph20.9 kmh 30.60 in1036.2 mb 0.00 in0.0 mm 0.00 in0.0 mm 0.00 in0.0 mm
05:34 PM 9.7°F-12.4°C 3.7°F-15.7°C 76% 6.0 mph W9.7 kmh W 12.0 mph19.3 kmh 30.60 in1036.2 mb 0.00 in0.0 mm 0.00 in0.0 mm 0.00 in0.0 mm
05:39 PM 9.7°F-12.4°C 3.7°F-15.7°C 76% 6.0 mph W9.7 kmh W 14.0 mph22.5 kmh 30.60 in1036.2 mb 0.00 in0.0 mm 0.00 in0.0 mm 0.00 in0.0 mm
05:44 PM 9.7°F-12.4°C 3.7°F-15.7°C 76% 7.0 mph W11.3 kmh W 14.0 mph22.5 kmh 30.60 in1036.2 mb 0.00 in0.0 mm 0.00 in0.0 mm 0.00 in0.0 mm
05:49 PM 9.8°F-12.3°C 3.8°F-15.7°C 76% 8.0 mph WSW12.9 kmh WSW 14.0 mph22.5 kmh 30.60 in1036.2 mb 0.00 in0.0 mm 0.00 in0.0 mm 0.00 in0.0 mm
05:54 PM 9.8°F-12.3°C 3.8°F-15.7°C 76% 7.0 mph WSW11.3 kmh WSW 15.0 mph24.1 kmh 30.60 in1036.2 mb 0.00 in0.0 mm 0.00 in0.0 mm 0.00 in0.0 mm
05:59 PM 9.8°F-12.3°C 3.8°F-15.7°C 76% 6.0 mph WSW9.7 kmh WSW 15.0 mph24.1 kmh 30.60 in1036.2 mb 0.00 in0.0 mm 0.00 in0.0 mm 0.00 in0.0 mm
06:04 PM 9.8°F-12.3°C 3.8°F-15.7°C 76% 6.0 mph WSW9.7 kmh WSW 15.0 mph24.1 kmh 30.60 in1036.2 mb 0.00 in0.0 mm 0.00 in0.0 mm 0.00 in0.0 mm
06:09 PM 9.9°F-12.3°C 3.6°F-15.8°C 75% 8.0 mph WSW12.9 kmh WSW 15.0 mph24.1 kmh 30.60 in1036.2 mb 0.00 in0.0 mm 0.00 in0.0 mm 0.00 in0.0 mm
06:14 PM 9.9°F-12.3°C 3.6°F-15.8°C 75% 3.0 mph W4.8 kmh W 13.0 mph20.9 kmh 30.61 in1036.6 mb 0.00 in0.0 mm 0.00 in0.0 mm 0.00 in0.0 mm
06:19 PM 9.9°F-12.3°C 3.6°F-15.8°C 75% 3.0 mph WSW4.8 kmh WSW 13.0 mph20.9 kmh 30.61 in1036.6 mb 0.00 in0.0 mm 0.00 in0.0 mm 0.00 in0.0 mm
06:24 PM 9.9°F-12.3°C 3.6°F-15.8°C 75% 11.0 mph WSW17.7 kmh WSW 12.0 mph19.3 kmh 30.61 in1036.6 mb 0.00 in0.0 mm 0.00 in0.0 mm 0.00 in0.0 mm
06:29 PM 9.9°F-12.3°C 3.3°F-15.9°C 74% 7.0 mph WSW11.3 kmh WSW 13.0 mph20.9 kmh 30.61 in1036.6 mb 0.00 in0.0 mm 0.00 in0.0 mm 0.00 in0.0 mm
06:34 PM 9.9°F-12.3°C 3.3°F-15.9°C 74% 6.0 mph WNW9.7 kmh WNW 13.0 mph20.9 kmh 30.61 in1036.6 mb 0.00 in0.0 mm 0.00 in0.0 mm 0.00 in0.0 mm
06:39 PM 9.9°F-12.3°C 3.3°F-15.9°C 74% 4.0 mph SW6.4 kmh SW 13.0 mph20.9 kmh 30.61 in1036.6 mb 0.00 in0.0 mm 0.00 in0.0 mm 0.00 in0.0 mm
06:44 PM 9.9°F-12.3°C 3.3°F-15.9°C 74% 9.0 mph WSW14.5 kmh WSW 13.0 mph20.9 kmh 30.61 in1036.6 mb 0.00 in0.0 mm 0.00 in0.0 mm 0.00 in0.0 mm
06:49 PM 9.9°F-12.3°C 3.3°F-15.9°C 74% 5.0 mph W8.0 kmh W 12.0 mph19.3 kmh 30.61 in1036.6 mb 0.00 in0.0 mm 0.00 in0.0 mm 0.00 in0.0 mm
06:54 PM 9.9°F-12.3°C 3.0°F-16.1°C 73% 7.0 mph W11.3 kmh W 12.0 mph19.3 kmh 30.61 in1036.6 mb 0.00 in0.0 mm 0.00 in0.0 mm 0.00 in0.0 mm
06:59 PM 9.8°F-12.3°C 2.9°F-16.2°C 73% 11.0 mph WSW17.7 kmh WSW 12.0 mph19.3 kmh 30.62 in1036.9 mb 0.00 in0.0 mm 0.00 in0.0 mm 0.00 in0.0 mm
07:04 PM 9.7°F-12.4°C 2.8°F-16.2°C 73% 11.0 mph SW17.7 kmh SW 17.0 mph27.4 kmh 30.62 in1036.9 mb 0.00 in0.0 mm 0.00 in0.0 mm 0.00 in0.0 mm
07:09 PM 9.7°F-12.4°C 2.8°F-16.2°C 73% 7.0 mph W11.3 kmh W 17.0 mph27.4 kmh 30.62 in1036.9 mb 0.00 in0.0 mm 0.00 in0.0 mm 0.00 in0.0 mm
07:14 PM 9.6°F-12.4°C 2.7°F-16.3°C 73% 6.0 mph WSW9.7 kmh WSW 17.0 mph27.4 kmh 30.62 in1036.9 mb 0.00 in0.0 mm 0.00 in0.0 mm 0.00 in0.0 mm
07:19 PM 9.5°F-12.5°C 2.6°F-16.3°C 73% 5.0 mph SW8.0 kmh SW 17.0 mph27.4 kmh 30.62 in1036.9 mb 0.00 in0.0 mm 0.00 in0.0 mm 0.00 in0.0 mm
07:24 PM 9.4°F-12.6°C 2.5°F-16.4°C 73% 5.0 mph WSW8.0 kmh WSW 11.0 mph17.7 kmh 30.62 in1036.9 mb 0.00 in0.0 mm 0.00 in0.0 mm 0.00 in0.0 mm
07:29 PM 9.4°F-12.6°C 2.5°F-16.4°C 73% 5.0 mph WSW8.0 kmh WSW 11.0 mph17.7 kmh 30.62 in1036.9 mb 0.00 in0.0 mm 0.00 in0.0 mm 0.00 in0.0 mm
07:34 PM 9.3°F-12.6°C 2.4°F-16.4°C 73% 5.0 mph WSW8.0 kmh WSW 10.0 mph16.1 kmh 30.62 in1036.9 mb 0.00 in0.0 mm 0.00 in0.0 mm 0.00 in0.0 mm
07:39 PM 9.3°F-12.6°C 2.4°F-16.4°C 73% 3.0 mph WSW4.8 kmh WSW 10.0 mph16.1 kmh 30.62 in1036.9 mb 0.00 in0.0 mm 0.00 in0.0 mm 0.00 in0.0 mm
07:44 PM 9.2°F-12.7°C 2.3°F-16.5°C 73% 4.0 mph SW6.4 kmh SW 10.0 mph16.1 kmh 30.62 in1036.9 mb 0.00 in0.0 mm 0.00 in0.0 mm 0.00 in0.0 mm
07:49 PM 9.2°F-12.7°C 2.3°F-16.5°C 73% 3.0 mph WSW4.8 kmh WSW 10.0 mph16.1 kmh 30.62 in1036.9 mb 0.00 in0.0 mm 0.00 in0.0 mm 0.00 in0.0 mm
07:54 PM 9.1°F-12.7°C 2.2°F-16.6°C 73% 6.0 mph WSW9.7 kmh WSW 11.0 mph17.7 kmh 30.62 in1036.9 mb 0.00 in0.0 mm 0.00 in0.0 mm 0.00 in0.0 mm
07:59 PM 9.0°F-12.8°C 2.1°F-16.6°C 73% 4.0 mph WSW6.4 kmh WSW 11.0 mph17.7 kmh 30.63 in1037.3 mb 0.00 in0.0 mm 0.00 in0.0 mm 0.00 in0.0 mm
08:04 PM 8.9°F-12.8°C 2.0°F-16.7°C 73% 5.0 mph W8.0 kmh W 11.0 mph17.7 kmh 30.63 in1037.3 mb 0.00 in0.0 mm 0.00 in0.0 mm 0.00 in0.0 mm
08:09 PM 8.8°F-12.9°C 1.9°F-16.7°C 73% 4.0 mph WSW6.4 kmh WSW 11.0 mph17.7 kmh 30.63 in1037.3 mb 0.00 in0.0 mm 0.00 in0.0 mm 0.00 in0.0 mm
08:14 PM 8.8°F-12.9°C 1.9°F-16.7°C 73% 4.0 mph WSW6.4 kmh WSW 11.0 mph17.7 kmh 30.63 in1037.3 mb 0.00 in0.0 mm 0.00 in0.0 mm 0.00 in0.0 mm
08:19 PM 8.7°F-12.9°C 1.8°F-16.8°C 73% 4.0 mph WSW6.4 kmh WSW 11.0 mph17.7 kmh 30.63 in1037.3 mb 0.00 in0.0 mm 0.00 in0.0 mm 0.00 in0.0 mm
08:24 PM 8.6°F-13.0°C 1.7°F-16.8°C 73% 7.0 mph WSW11.3 kmh WSW 11.0 mph17.7 kmh 30.63 in1037.3 mb 0.00 in0.0 mm 0.00 in0.0 mm 0.00 in0.0 mm
08:29 PM 8.6°F-13.0°C 1.7°F-16.8°C 73% 5.0 mph WSW8.0 kmh WSW 8.0 mph12.9 kmh 30.63 in1037.3 mb 0.00 in0.0 mm 0.00 in0.0 mm 0.00 in0.0 mm
08:34 PM 8.5°F-13.1°C 1.6°F-16.9°C 73% 4.0 mph WSW6.4 kmh WSW 8.0 mph12.9 kmh 30.63 in1037.3 mb 0.00 in0.0 mm 0.00 in0.0 mm 0.00 in0.0 mm
08:39 PM 8.5°F-13.1°C 1.6°F-16.9°C 73% 4.0 mph WSW6.4 kmh WSW 8.0 mph12.9 kmh 30.63 in1037.3 mb 0.00 in0.0 mm 0.00 in0.0 mm 0.00 in0.0 mm
08:44 PM 8.5°F-13.1°C 1.6°F-16.9°C 73% 3.0 mph WSW4.8 kmh WSW 10.0 mph16.1 kmh 30.63 in1037.3 mb 0.00 in0.0 mm 0.00 in0.0 mm 0.00 in0.0 mm
08:49 PM 8.5°F-13.1°C 1.6°F-16.9°C 73% 5.0 mph SW8.0 kmh SW 10.0 mph16.1 kmh 30.63 in1037.3 mb 0.00 in0.0 mm 0.00 in0.0 mm 0.00 in0.0 mm
08:54 PM 8.4°F-13.1°C 1.5°F-16.9°C 73% 6.0 mph SW9.7 kmh SW 10.0 mph16.1 kmh 30.63 in1037.3 mb 0.00 in0.0 mm 0.00 in0.0 mm 0.00 in0.0 mm
08:59 PM 8.4°F-13.1°C 1.5°F-16.9°C 73% 3.0 mph WSW4.8 kmh WSW 10.0 mph16.1 kmh 30.63 in1037.3 mb 0.00 in0.0 mm 0.00 in0.0 mm 0.00 in0.0 mm
09:04 PM 8.3°F-13.2°C 1.4°F-17.0°C 73% 3.0 mph WSW4.8 kmh WSW 10.0 mph16.1 kmh 30.63 in1037.3 mb 0.00 in0.0 mm 0.00 in0.0 mm 0.00 in0.0 mm
09:09 PM 8.3°F-13.2°C 1.4°F-17.0°C 73% 2.0 mph SW3.2 kmh SW 12.0 mph19.3 kmh 30.63 in1037.3 mb 0.00 in0.0 mm 0.00 in0.0 mm 0.00 in0.0 mm
09:14 PM 8.2°F-13.2°C 1.4°F-17.0°C 73% 5.0 mph SW8.0 kmh SW 12.0 mph19.3 kmh 30.63 in1037.3 mb 0.00 in0.0 mm 0.00 in0.0 mm 0.00 in0.0 mm
09:19 PM 8.2°F-13.2°C 1.4°F-17.0°C 73% 3.0 mph WSW4.8 kmh WSW 12.0 mph19.3 kmh 30.63 in1037.3 mb 0.00 in0.0 mm 0.00 in0.0 mm 0.00 in0.0 mm
09:24 PM 8.1°F-13.3°C 1.3°F-17.1°C 73% 4.0 mph W6.4 kmh W 12.0 mph19.3 kmh 30.63 in1037.3 mb 0.00 in0.0 mm 0.00 in0.0 mm 0.00 in0.0 mm
09:29 PM 8.1°F-13.3°C 1.3°F-17.1°C 73% 3.0 mph WSW4.8 kmh WSW 7.0 mph11.3 kmh 30.64 in1037.6 mb 0.00 in0.0 mm 0.00 in0.0 mm 0.00 in0.0 mm
09:34 PM 8.1°F-13.3°C 1.3°F-17.1°C 73% 4.0 mph WSW6.4 kmh WSW 8.0 mph12.9 kmh 30.64 in1037.6 mb 0.00 in0.0 mm 0.00 in0.0 mm 0.00 in0.0 mm
09:39 PM 8.1°F-13.3°C 1.3°F-17.1°C 73% 3.0 mph SW4.8 kmh SW 8.0 mph12.9 kmh 30.64 in1037.6 mb 0.00 in0.0 mm 0.00 in0.0 mm 0.00 in0.0 mm
09:44 PM 8.0°F-13.3°C 1.2°F-17.1°C 73% 5.0 mph WSW8.0 kmh WSW 11.0 mph17.7 kmh 30.64 in1037.6 mb 0.00 in0.0 mm 0.00 in0.0 mm 0.00 in0.0 mm
09:49 PM 8.0°F-13.3°C 1.2°F-17.1°C 73% 7.0 mph WSW11.3 kmh WSW 12.0 mph19.3 kmh 30.64 in1037.6 mb 0.00 in0.0 mm 0.00 in0.0 mm 0.00 in0.0 mm
09:54 PM 7.9°F-13.4°C 1.1°F-17.2°C 73% 11.0 mph SW17.7 kmh SW 12.0 mph19.3 kmh 30.64 in1037.6 mb 0.00 in0.0 mm 0.00 in0.0 mm 0.00 in0.0 mm
09:59 PM 7.9°F-13.4°C 1.1°F-17.2°C 73% 8.0 mph W12.9 kmh W 12.0 mph19.3 kmh 30.64 in1037.6 mb 0.00 in0.0 mm 0.00 in0.0 mm 0.00 in0.0 mm
10:04 PM 7.8°F-13.4°C 1.0°F-17.2°C 73% 7.0 mph WSW11.3 kmh WSW 13.0 mph20.9 kmh 30.64 in1037.6 mb 0.00 in0.0 mm 0.00 in0.0 mm 0.00 in0.0 mm
10:09 PM 7.8°F-13.4°C 1.0°F-17.2°C 73% 4.0 mph WSW6.4 kmh WSW 13.0 mph20.9 kmh 30.64 in1037.6 mb 0.00 in0.0 mm 0.00 in0.0 mm 0.00 in0.0 mm
10:14 PM 7.7°F-13.5°C 0.9°F-17.3°C 73% 3.0 mph WSW4.8 kmh WSW 13.0 mph20.9 kmh 30.64 in1037.6 mb 0.00 in0.0 mm 0.00 in0.0 mm 0.00 in0.0 mm
10:19 PM 7.8°F-13.4°C 1.0°F-17.2°C 73% 3.0 mph WSW4.8 kmh WSW 13.0 mph20.9 kmh 30.64 in1037.6 mb 0.00 in0.0 mm 0.00 in0.0 mm 0.00 in0.0 mm
10:24 PM 7.7°F-13.5°C 0.9°F-17.3°C 73% 4.0 mph SW6.4 kmh SW 7.0 mph11.3 kmh 30.64 in1037.6 mb 0.00 in0.0 mm 0.00 in0.0 mm 0.00 in0.0 mm
10:29 PM 7.7°F-13.5°C 0.9°F-17.3°C 73% 4.0 mph SSW6.4 kmh SSW 7.0 mph11.3 kmh 30.64 in1037.6 mb 0.00 in0.0 mm 0.00 in0.0 mm 0.00 in0.0 mm
10:34 PM 7.7°F-13.5°C 0.9°F-17.3°C 73% 4.0 mph WSW6.4 kmh WSW 8.0 mph12.9 kmh 30.64 in1037.6 mb 0.00 in0.0 mm 0.00 in0.0 mm 0.00 in0.0 mm
10:39 PM 7.7°F-13.5°C 0.9°F-17.3°C 73% 3.0 mph SW4.8 kmh SW 8.0 mph12.9 kmh 30.64 in1037.6 mb 0.00 in0.0 mm 0.00 in0.0 mm 0.00 in0.0 mm
10:44 PM 7.7°F-13.5°C 0.9°F-17.3°C 73% 3.0 mph WSW4.8 kmh WSW 8.0 mph12.9 kmh 30.64 in1037.6 mb 0.00 in0.0 mm 0.00 in0.0 mm 0.00 in0.0 mm
10:49 PM 7.7°F-13.5°C 0.9°F-17.3°C 73% 3.0 mph WSW4.8 kmh WSW 8.0 mph12.9 kmh 30.64 in1037.6 mb 0.00 in0.0 mm 0.00 in0.0 mm 0.00 in0.0 mm
10:54 PM 7.7°F-13.5°C 0.9°F-17.3°C 73% 3.0 mph WSW4.8 kmh WSW 6.0 mph9.7 kmh 30.64 in1037.6 mb 0.00 in0.0 mm 0.00 in0.0 mm 0.00 in0.0 mm
10:59 PM 7.6°F-13.6°C 0.8°F-17.3°C 73% 3.0 mph SW4.8 kmh SW 6.0 mph9.7 kmh 30.64 in1037.6 mb 0.00 in0.0 mm 0.00 in0.0 mm 0.00 in0.0 mm
11:04 PM 7.6°F-13.6°C 0.8°F-17.3°C 73% 2.0 mph WSW3.2 kmh WSW 7.0 mph11.3 kmh 30.64 in1037.6 mb 0.00 in0.0 mm 0.00 in0.0 mm 0.00 in0.0 mm
11:09 PM 7.5°F-13.6°C 0.7°F-17.4°C 73% 2.0 mph SW3.2 kmh SW 7.0 mph11.3 kmh 30.64 in1037.6 mb 0.00 in0.0 mm 0.00 in0.0 mm 0.00 in0.0 mm
11:14 PM 7.4°F-13.7°C 0.6°F-17.4°C 73% 2.0 mph SW3.2 kmh SW 7.0 mph11.3 kmh 30.64 in1037.6 mb 0.00 in0.0 mm 0.00 in0.0 mm 0.00 in0.0 mm
11:19 PM 7.4°F-13.7°C 0.6°F-17.4°C 73% 2.0 mph WSW3.2 kmh WSW 7.0 mph11.3 kmh 30.64 in1037.6 mb 0.00 in0.0 mm 0.00 in0.0 mm 0.00 in0.0 mm
11:24 PM 7.2°F-13.8°C 0.4°F-17.6°C 73% 3.0 mph WSW4.8 kmh WSW 7.0 mph11.3 kmh 30.64 in1037.6 mb 0.00 in0.0 mm 0.00 in0.0 mm 0.00 in0.0 mm
11:29 PM 7.2°F-13.8°C 0.4°F-17.6°C 73% 2.0 mph WSW3.2 kmh WSW 7.0 mph11.3 kmh 30.64 in1037.6 mb 0.00 in0.0 mm 0.00 in0.0 mm 0.00 in0.0 mm
11:34 PM 7.1°F-13.8°C 0.3°F-17.6°C 73% 5.0 mph WSW8.0 kmh WSW 9.0 mph14.5 kmh 30.64 in1037.6 mb 0.00 in0.0 mm 0.00 in0.0 mm 0.00 in0.0 mm
11:39 PM 7.1°F-13.8°C 0.3°F-17.6°C 73% 4.0 mph WSW6.4 kmh WSW 9.0 mph14.5 kmh 30.64 in1037.6 mb 0.00 in0.0 mm 0.00 in0.0 mm 0.00 in0.0 mm
11:44 PM 7.1°F-13.8°C 0.0°F-17.8°C 72% 2.0 mph SW3.2 kmh SW 9.0 mph14.5 kmh 30.64 in1037.6 mb 0.00 in0.0 mm 0.00 in0.0 mm 0.00 in0.0 mm
11:49 PM 7.1°F-13.8°C 0.0°F-17.8°C 72% 3.0 mph SW4.8 kmh SW 9.0 mph14.5 kmh 30.64 in1037.6 mb 0.00 in0.0 mm 0.00 in0.0 mm 0.00 in0.0 mm
11:54 PM 7.0°F-13.9°C 0.2°F-17.7°C 73% 2.0 mph W3.2 kmh W 6.0 mph9.7 kmh 30.64 in1037.6 mb 0.00 in0.0 mm 0.00 in0.0 mm 0.00 in0.0 mm
11:59 PM 7.0°F-13.9°C 0.2°F-17.7°C 73% 1.0 mph WSW1.6 kmh WSW 6.0 mph9.7 kmh 30.64 in1037.6 mb 0.00 in0.0 mm 0.00 in0.0 mm 0.00 in0.0 mm